createdAt,value
2023-05-16T00:02:48.826Z,9.20
2023-05-16T00:07:50.785Z,10.57
2023-05-16T00:12:52.404Z,10.63
2023-05-16T00:17:58.868Z,12.20
2023-05-16T00:23:01.379Z,12.20
2023-05-16T00:28:03.364Z,10.95
2023-05-16T00:33:05.815Z,11.75
2023-05-16T00:38:07.523Z,11.13
2023-05-16T00:43:09.155Z,11.93
2023-05-16T00:48:12.862Z,13.20
2023-05-16T00:53:14.580Z,14.57
2023-05-16T00:58:16.777Z,11.07
2023-05-16T01:03:20.451Z,10.80
2023-05-16T01:08:22.512Z,12.07
2023-05-16T01:13:48.601Z,13.27
2023-05-16T01:19:12.321Z,9.82
2023-05-16T01:24:23.576Z,12.98
2023-05-16T01:29:25.661Z,10.90
2023-05-16T01:34:27.312Z,11.55
2023-05-16T01:39:57.795Z,13.32
2023-05-16T01:45:13.254Z,11.90
2023-05-16T01:50:18.887Z,11.27
2023-05-16T01:55:43.690Z,13.38
2023-05-16T02:05:47.038Z,13.65
2023-05-16T02:10:49.063Z,14.95
2023-05-16T02:15:51.354Z,14.13
2023-05-16T02:20:54.183Z,15.43
2023-05-16T02:25:55.857Z,14.60
2023-05-16T02:31:01.524Z,12.85
2023-05-16T02:36:03.721Z,14.32
2023-05-16T02:41:05.820Z,12.88
2023-05-16T02:46:28.835Z,15.32
2023-05-16T02:51:30.514Z,17.52
2023-05-16T02:56:32.132Z,15.65
2023-05-16T03:01:34.435Z,15.50
2023-05-16T03:06:36.143Z,14.95
2023-05-16T03:11:37.880Z,12.40
2023-05-16T03:16:41.628Z,13.55
2023-05-16T03:21:43.500Z,13.70
2023-05-16T03:26:45.346Z,13.77
2023-05-16T03:31:47.261Z,13.93
2023-05-16T03:36:49.628Z,16.63
2023-05-16T03:41:52.322Z,13.98
2023-05-16T03:46:55.941Z,15.00
2023-05-16T03:51:57.643Z,13.40
2023-05-16T03:56:59.254Z,17.83
2023-05-16T04:02:01.161Z,15.60
2023-05-16T04:07:03.146Z,13.38
2023-05-16T04:12:05.023Z,14.02
2023-05-16T04:17:06.747Z,15.00
2023-05-16T04:22:09.128Z,15.93
2023-05-16T04:27:10.819Z,19.23
2023-05-16T04:32:12.514Z,17.52
2023-05-16T04:37:14.255Z,14.05
2023-05-16T04:42:16.431Z,13.85
2023-05-16T04:47:18.100Z,16.50
2023-05-16T04:52:19.753Z,17.20
2023-05-16T04:57:21.406Z,17.85
2023-05-16T05:02:23.060Z,16.15
2023-05-16T05:07:28.089Z,27.13
2023-05-16T05:12:29.770Z,18.58
2023-05-16T05:17:31.456Z,20.83
2023-05-16T05:22:33.421Z,18.90
2023-05-16T05:27:35.093Z,19.00
2023-05-16T05:32:36.953Z,20.67
2023-05-16T05:37:38.712Z,21.17
2023-05-16T05:42:40.385Z,20.50
2023-05-16T05:47:42.513Z,18.70
2023-05-16T05:52:44.313Z,36.10
2023-05-16T05:57:46.028Z,21.77
2023-05-16T06:02:48.883Z,22.13
2023-05-16T06:07:50.735Z,24.80
2023-05-16T06:12:52.496Z,26.40
2023-05-16T06:17:54.418Z,24.42
2023-05-16T06:22:56.980Z,25.45
2023-05-16T06:27:58.700Z,30.55
2023-05-16T06:33:00.331Z,33.33
2023-05-16T06:38:01.959Z,37.45
2023-05-16T06:43:03.750Z,34.60
2023-05-16T06:48:07.646Z,33.58
2023-05-16T06:53:09.528Z,38.35
2023-05-16T06:58:11.637Z,32.38
2023-05-16T07:03:13.483Z,32.50
2023-05-16T07:08:15.408Z,24.85
2023-05-16T07:13:17.102Z,23.88
2023-05-16T07:18:18.976Z,25.52
2023-05-16T07:23:21.096Z,21.15
2023-05-16T07:28:26.189Z,20.63
2023-05-16T07:33:27.849Z,20.17
2023-05-16T07:38:29.533Z,18.52
2023-05-16T07:43:31.324Z,17.08
2023-05-16T07:48:33.208Z,18.77
2023-05-16T07:53:34.942Z,18.08
2023-05-16T07:58:37.807Z,20.38
2023-05-16T08:03:39.672Z,17.98
2023-05-16T08:08:41.462Z,17.08
2023-05-16T08:13:43.131Z,15.75
2023-05-16T08:18:44.848Z,15.60
2023-05-16T08:23:47.116Z,16.90
2023-05-16T08:28:49.281Z,12.82
2023-05-16T08:33:51.168Z,15.45
2023-05-16T08:38:52.828Z,16.83
2023-05-16T08:43:54.599Z,14.93
2023-05-16T08:48:59.710Z,13.02
2023-05-16T08:54:06.999Z,18.10
2023-05-16T08:59:08.710Z,20.45
2023-05-16T09:04:10.741Z,22.10
2023-05-16T09:09:13.040Z,10.75
2023-05-16T09:14:14.830Z,13.52
2023-05-16T09:19:16.760Z,13.07
2023-05-16T09:24:26.214Z,11.85
2023-05-16T09:29:27.895Z,12.73
2023-05-16T09:34:29.555Z,13.10
2023-05-16T09:39:31.197Z,11.77
2023-05-16T09:44:32.905Z,12.15
2023-05-16T09:49:37.472Z,9.75
2023-05-16T09:54:39.571Z,10.38
2023-05-16T09:59:42.126Z,12.32
2023-05-16T10:04:46.603Z,12.15
2023-05-16T10:09:49.116Z,12.43
2023-05-16T10:14:50.920Z,12.00
2023-05-16T10:19:54.263Z,11.63
2023-05-16T10:25:04.371Z,12.00
2023-05-16T10:30:07.167Z,10.50
2023-05-16T10:35:09.569Z,11.43
2023-05-16T10:40:11.750Z,13.35
2023-05-16T10:45:20.926Z,9.43
2023-05-16T10:50:39.884Z,9.80
2023-05-16T10:55:46.127Z,8.43
2023-05-16T11:00:48.124Z,7.75
2023-05-16T11:05:54.179Z,11.68
2023-05-16T11:11:33.531Z,6.70
2023-05-16T11:16:36.369Z,8.05
2023-05-16T11:22:11.968Z,8.90
2023-05-16T11:27:15.174Z,7.03
2023-05-16T11:32:19.939Z,8.02
2023-05-16T11:37:21.756Z,7.72
2023-05-16T11:42:23.469Z,7.43
2023-05-16T11:47:25.234Z,8.18
2023-05-16T11:52:28.007Z,6.55
2023-05-16T11:57:29.892Z,4.82
2023-05-16T12:02:32.557Z,6.53
2023-05-16T12:07:34.242Z,5.93
2023-05-16T12:12:36.822Z,6.55
2023-05-16T12:17:39.643Z,8.00
2023-05-16T12:22:41.662Z,8.18
2023-05-16T12:27:45.799Z,6.70
2023-05-16T12:32:55.951Z,6.05
2023-05-16T12:37:57.854Z,5.95
2023-05-16T12:42:59.733Z,15.45
2023-05-16T12:48:06.909Z,5.45
2023-05-16T12:53:13.990Z,4.63
2023-05-16T12:58:16.513Z,7.82
2023-05-16T13:03:19.262Z,5.55
2023-05-16T13:08:21.063Z,5.55
2023-05-16T13:13:35.396Z,6.93
2023-05-16T13:18:38.378Z,7.78
2023-05-16T13:23:40.123Z,6.50
2023-05-16T13:28:44.475Z,18.23
2023-05-16T13:33:46.174Z,5.20
2023-05-16T13:38:48.197Z,4.85
2023-05-16T13:43:49.887Z,8.10
2023-05-16T13:48:51.562Z,5.82
2023-05-16T13:53:53.434Z,4.68
2023-05-16T13:59:02.523Z,5.82
2023-05-16T14:04:07.999Z,6.28
2023-05-16T14:09:11.169Z,5.13
2023-05-16T14:14:12.873Z,4.85
2023-05-16T14:19:17.346Z,8.02
2023-05-16T14:24:21.117Z,8.30
2023-05-16T14:29:22.877Z,6.68
2023-05-16T14:34:24.608Z,5.88
2023-05-16T14:39:27.170Z,6.00
2023-05-16T14:44:28.882Z,8.48
2023-05-16T14:49:30.669Z,8.18
2023-05-16T14:54:32.419Z,7.55
2023-05-16T14:59:34.093Z,6.95
2023-05-16T15:04:35.942Z,8.10
2023-05-16T15:09:37.645Z,7.78
2023-05-16T15:14:39.327Z,9.38
2023-05-16T15:19:41.068Z,5.95
2023-05-16T15:24:42.859Z,6.30
2023-05-16T15:29:44.979Z,6.10
2023-05-16T15:34:46.714Z,6.50
2023-05-16T15:39:48.424Z,6.45
2023-05-16T15:44:50.079Z,4.63
2023-05-16T15:49:51.774Z,7.43
2023-05-16T15:54:53.469Z,5.15
2023-05-16T15:59:55.135Z,7.13
2023-05-16T16:04:56.752Z,4.57
2023-05-16T16:09:59.628Z,4.78
2023-05-16T16:15:02.447Z,5.13
2023-05-16T16:20:04.519Z,3.25
2023-05-16T16:25:06.808Z,3.65
2023-05-16T16:30:10.040Z,4.10
2023-05-16T16:35:11.999Z,4.95
2023-05-16T16:40:13.850Z,3.97
2023-05-16T16:45:16.884Z,6.07
2023-05-16T16:50:18.848Z,5.25
2023-05-16T16:55:20.858Z,4.35
2023-05-16T17:00:22.646Z,4.07
2023-05-16T17:05:24.365Z,3.03
2023-05-16T17:10:26.106Z,6.07
2023-05-16T17:15:28.012Z,5.63
2023-05-16T17:20:30.038Z,5.97
2023-05-16T17:25:31.836Z,3.85
2023-05-16T17:30:33.603Z,4.70
2023-05-16T17:35:35.883Z,6.25
2023-05-16T17:40:37.573Z,5.38
2023-05-16T17:45:39.672Z,2.17
2023-05-16T17:50:43.360Z,4.65
2023-05-16T17:55:45.326Z,5.95
2023-05-16T18:00:47.145Z,6.28
2023-05-16T18:05:49.667Z,5.97
2023-05-16T18:10:52.655Z,3.35
2023-05-16T18:15:54.490Z,3.85
2023-05-16T18:20:56.910Z,2.75
2023-05-16T18:25:58.612Z,4.30
2023-05-16T18:31:00.558Z,6.07
2023-05-16T18:36:02.250Z,4.30
2023-05-16T18:41:03.968Z,8.30
2023-05-16T18:46:05.771Z,6.22
2023-05-16T18:51:07.461Z,5.68
2023-05-16T18:56:09.088Z,5.85
2023-05-16T19:01:10.793Z,6.57
2023-05-16T19:06:14.356Z,6.60
2023-05-16T19:11:17.428Z,7.82
2023-05-16T19:16:19.209Z,4.63
2023-05-16T19:21:20.912Z,6.32
2023-05-16T19:26:23.203Z,8.40
2023-05-16T19:31:25.214Z,10.60
2023-05-16T19:36:26.949Z,6.88
2023-05-16T19:41:28.629Z,5.22
2023-05-16T19:46:30.285Z,6.25
2023-05-16T19:51:40.692Z,5.80
2023-05-16T19:56:42.829Z,5.70
2023-05-16T20:01:44.726Z,4.35
2023-05-16T20:06:46.887Z,5.93
2023-05-16T20:11:48.635Z,5.35
2023-05-16T20:16:50.330Z,55.72
2023-05-16T20:21:51.977Z,10.80
2023-05-16T20:26:54.395Z,4.43
2023-05-16T20:31:56.440Z,3.35
2023-05-16T20:36:58.610Z,3.38
2023-05-16T20:42:00.500Z,7.50
2023-05-16T20:47:02.320Z,5.38
2023-05-16T20:52:04.660Z,4.57
2023-05-16T20:57:07.294Z,3.92
2023-05-16T21:02:10.203Z,3.38
2023-05-16T21:07:11.924Z,4.32
2023-05-16T21:12:14.493Z,4.57
2023-05-16T21:17:16.131Z,4.13
2023-05-16T21:22:18.056Z,2.33
2023-05-16T21:27:19.816Z,4.07
2023-05-16T21:32:21.731Z,5.40
2023-05-16T21:37:23.396Z,4.82
2023-05-16T21:42:25.119Z,4.85
2023-05-16T21:47:26.940Z,2.08
2023-05-16T21:52:28.602Z,3.42
2023-05-16T21:57:30.348Z,8.18
2023-05-16T22:02:33.075Z,5.05
2023-05-16T22:07:35.168Z,4.32
2023-05-16T22:12:36.834Z,4.47
2023-05-16T22:17:38.604Z,4.90
2023-05-16T22:22:40.799Z,4.80
2023-05-16T22:27:42.664Z,4.45
2023-05-16T22:32:47.029Z,4.45
2023-05-16T22:37:48.800Z,6.75
2023-05-16T22:42:50.492Z,6.10
2023-05-16T22:47:52.424Z,3.40
2023-05-16T22:52:54.141Z,3.55
2023-05-16T22:57:57.211Z,5.13
2023-05-16T23:02:59.020Z,3.80
2023-05-16T23:08:00.830Z,7.88
2023-05-16T23:13:03.233Z,5.68
2023-05-16T23:18:05.323Z,18.75
2023-05-16T23:23:07.041Z,6.40
2023-05-16T23:28:08.704Z,5.10
2023-05-16T23:33:10.861Z,3.25
2023-05-16T23:38:12.626Z,3.13
2023-05-16T23:43:14.272Z,3.00
2023-05-16T23:48:16.054Z,5.43
2023-05-16T23:53:17.853Z,33.30
2023-05-16T23:58:19.484Z,4.80
